createdAt,value
2022-09-06T00:00:19.052Z,97345.59
2022-09-06T00:05:41.502Z,97344.59
2022-09-06T00:11:02.453Z,97346.03
2022-09-06T00:16:27.377Z,97340.78
2022-09-06T00:21:50.800Z,97340.63
2022-09-06T00:27:11.541Z,97343.75
2022-09-06T00:32:33.029Z,97344.72
2022-09-06T00:37:58.462Z,97326.59
2022-09-06T00:43:19.246Z,97332.91
2022-09-06T00:48:41.629Z,97333.56
2022-09-06T00:54:07.866Z,97330.28
2022-09-06T00:59:31.339Z,97321.75
2022-09-06T01:04:52.873Z,97321.09
2022-09-06T01:10:22.761Z,97321.41
2022-09-06T01:15:43.670Z,97312.88
2022-09-06T01:21:10.680Z,97306.47
2022-09-06T01:27:15.110Z,97303.03
2022-09-06T01:32:49.113Z,97306.31
2022-09-06T01:38:10.780Z,97308.94
2022-09-06T01:43:38.661Z,97308.44
2022-09-06T01:49:17.247Z,97315.34
2022-09-06T01:54:51.506Z,97326.41
2022-09-06T02:00:14.918Z,97341.41
2022-09-06T02:05:38.532Z,97339.59
2022-09-06T02:11:02.757Z,97334.50
2022-09-06T02:16:26.881Z,97330.34
2022-09-06T02:21:49.375Z,97325.41
2022-09-06T02:27:12.100Z,97326.00
2022-09-06T02:32:39.314Z,97319.34
2022-09-06T02:37:59.919Z,97318.22
2022-09-06T02:43:21.489Z,97319.06
2022-09-06T02:48:42.066Z,97312.84
2022-09-06T02:54:02.656Z,97306.78
2022-09-06T02:59:23.209Z,97308.97
2022-09-06T03:04:43.907Z,97305.34
2022-09-06T03:10:05.112Z,97302.22
2022-09-06T03:15:26.005Z,97301.69
2022-09-06T03:20:49.788Z,97298.69
2022-09-06T03:26:10.488Z,97296.09
2022-09-06T03:31:30.949Z,97300.56
2022-09-06T03:36:51.693Z,97300.59
2022-09-06T03:42:12.946Z,97290.03
2022-09-06T03:47:33.916Z,97291.38
2022-09-06T03:52:54.602Z,97280.50
2022-09-06T03:58:16.538Z,97283.66
2022-09-06T04:03:39.097Z,97292.72
2022-09-06T04:08:59.639Z,97302.41
2022-09-06T04:14:20.311Z,97302.22
2022-09-06T04:19:40.879Z,97306.16
2022-09-06T04:25:01.649Z,97299.44
2022-09-06T04:30:22.250Z,97297.28
2022-09-06T04:35:42.859Z,97295.81
2022-09-06T04:41:04.161Z,97291.84
2022-09-06T04:46:30.343Z,97292.03
2022-09-06T04:51:51.176Z,97287.75
2022-09-06T04:57:11.973Z,97287.09
2022-09-06T05:02:33.439Z,97282.50
2022-09-06T05:07:55.152Z,97284.97
2022-09-06T05:13:15.722Z,97286.78
2022-09-06T05:18:36.470Z,97293.19
2022-09-06T05:23:58.858Z,97296.16
2022-09-06T05:29:19.886Z,97291.22
2022-09-06T05:34:40.601Z,97299.25
2022-09-06T05:40:01.939Z,97297.31
2022-09-06T05:45:23.079Z,97291.31
2022-09-06T05:50:43.973Z,97285.88
2022-09-06T05:56:05.634Z,97297.19
2022-09-06T06:01:28.485Z,97315.34
2022-09-06T06:06:49.587Z,97317.19
2022-09-06T06:12:10.441Z,97319.59
2022-09-06T06:17:31.236Z,97311.16
2022-09-06T06:22:51.720Z,97313.78
2022-09-06T06:28:12.268Z,97306.00
2022-09-06T06:33:33.434Z,97306.06
2022-09-06T06:38:55.437Z,97306.84
2022-09-06T06:44:16.273Z,97300.72
2022-09-06T06:49:36.825Z,97293.94
2022-09-06T06:54:57.487Z,97290.97
2022-09-06T07:00:18.118Z,97284.22
2022-09-06T07:11:24.331Z,97292.34
2022-09-06T07:16:46.343Z,97295.13
2022-09-06T07:22:09.390Z,97285.06
2022-09-06T07:27:47.314Z,97295.41
2022-09-06T07:33:09.100Z,97293.91
2022-09-06T07:38:30.492Z,97300.19
2022-09-06T07:43:57.254Z,97309.41
2022-09-06T07:49:18.088Z,97299.97
2022-09-06T07:54:38.611Z,97303.72
2022-09-06T07:59:59.123Z,97292.69
2022-09-06T08:11:00.573Z,97286.69
2022-09-06T08:16:22.178Z,97290.69
2022-09-06T08:21:42.822Z,97281.13
2022-09-06T08:27:03.801Z,97289.72
2022-09-06T08:32:24.436Z,97287.34
2022-09-06T08:37:45.098Z,97293.06
2022-09-06T08:43:21.615Z,97294.34
2022-09-06T08:48:42.951Z,97287.38
2022-09-06T08:54:12.424Z,97287.47
2022-09-06T08:59:39.822Z,97294.94
2022-09-06T09:05:06.261Z,97289.88
2022-09-06T09:10:37.042Z,97287.06
2022-09-06T09:15:57.801Z,97285.78
2022-09-06T09:21:26.799Z,97271.84
2022-09-06T09:27:11.366Z,97271.34
2022-09-06T09:32:36.876Z,97265.09
2022-09-06T09:38:23.257Z,97249.88
2022-09-06T09:44:00.051Z,97241.69
2022-09-06T09:49:24.435Z,97242.19
2022-09-06T09:54:46.919Z,97240.53
2022-09-06T10:00:13.273Z,97245.09
2022-09-06T10:05:34.084Z,97231.91
2022-09-06T10:10:54.670Z,97232.22
2022-09-06T10:16:15.645Z,97222.59
2022-09-06T10:21:36.239Z,97217.50
2022-09-06T10:27:02.047Z,97212.53
2022-09-06T10:32:46.122Z,97207.69
2022-09-06T10:38:15.751Z,97210.38
2022-09-06T10:44:21.109Z,97213.06
2022-09-06T10:49:48.769Z,97208.56
2022-09-06T10:55:14.414Z,97206.94
2022-09-06T11:00:47.508Z,97207.78
2022-09-06T11:06:10.531Z,97203.28
2022-09-06T11:11:52.961Z,97205.91
2022-09-06T11:17:33.154Z,97200.22
2022-09-06T11:23:31.002Z,97197.97
2022-09-06T11:28:58.543Z,97191.63
2022-09-06T11:34:33.980Z,97166.50
2022-09-06T11:40:29.959Z,97170.97
2022-09-06T11:45:53.023Z,97155.59
2022-09-06T11:51:33.682Z,97156.78
2022-09-06T11:57:02.478Z,97165.78
2022-09-06T12:02:43.130Z,97162.25
2022-09-06T12:08:25.842Z,97150.97
2022-09-06T12:13:46.903Z,97136.00
2022-09-06T12:19:08.423Z,97127.34
2022-09-06T12:24:35.329Z,97125.72
2022-09-06T12:29:59.703Z,97125.50
2022-09-06T12:41:05.849Z,97106.75
2022-09-06T12:46:30.015Z,97101.38
2022-09-06T12:51:50.811Z,97094.41
2022-09-06T12:57:23.616Z,97091.75
2022-09-06T13:02:56.733Z,97092.59
2022-09-06T13:08:26.011Z,97085.84
2022-09-06T13:13:51.904Z,97082.31
2022-09-06T13:19:19.413Z,97077.03
2022-09-06T13:24:47.055Z,97082.38
2022-09-06T13:30:10.474Z,97085.06
2022-09-06T13:35:34.582Z,97079.75
2022-09-06T13:41:14.678Z,97082.22
2022-09-06T13:46:36.603Z,97078.38
2022-09-06T13:52:03.262Z,97085.69
2022-09-06T13:57:24.724Z,97087.25
2022-09-06T14:02:47.461Z,97090.13
2022-09-06T14:08:08.327Z,97081.75
2022-09-06T14:13:30.278Z,97089.16
2022-09-06T14:18:52.109Z,97085.94
2022-09-06T14:24:12.936Z,97077.44
2022-09-06T14:29:35.223Z,97072.34
2022-09-06T14:34:56.096Z,97074.38
2022-09-06T14:40:17.480Z,97066.13
2022-09-06T14:45:38.072Z,97061.22
2022-09-06T14:50:59.515Z,97063.28
2022-09-06T14:56:21.180Z,97059.41
2022-09-06T15:01:42.029Z,97051.69
2022-09-06T15:07:02.989Z,97048.63
2022-09-06T15:12:24.713Z,97043.00
2022-09-06T15:17:46.104Z,97053.16
2022-09-06T15:23:34.281Z,97061.78
2022-09-06T15:28:48.181Z,97059.16
2022-09-06T15:34:10.511Z,97060.22
2022-09-06T15:39:31.413Z,97050.38
2022-09-06T15:44:52.234Z,97057.16
2022-09-06T15:50:12.991Z,97060.50
2022-09-06T15:55:52.024Z,97067.81
2022-09-06T16:01:18.418Z,97058.78
2022-09-06T16:06:42.658Z,97067.31
2022-09-06T16:12:03.930Z,97070.16
2022-09-06T16:17:27.493Z,97057.31
2022-09-06T16:22:49.500Z,97037.53
2022-09-06T16:28:10.378Z,97037.50
2022-09-06T16:33:32.605Z,97031.41
2022-09-06T16:38:54.912Z,97028.56
2022-09-06T16:44:18.018Z,97014.50
2022-09-06T16:49:38.983Z,97004.91
2022-09-06T16:55:00.284Z,97003.69
2022-09-06T17:00:20.922Z,96997.56
2022-09-06T17:05:41.731Z,97002.88
2022-09-06T17:11:14.737Z,96988.97
2022-09-06T17:16:54.328Z,96985.88
2022-09-06T17:22:15.143Z,96992.53
2022-09-06T17:27:36.051Z,96998.25
2022-09-06T17:32:56.940Z,97001.38
2022-09-06T17:38:17.927Z,96999.13
2022-09-06T17:43:38.695Z,97009.25
2022-09-06T17:54:20.018Z,97000.75
2022-09-06T17:59:40.643Z,97000.75
2022-09-06T18:05:01.405Z,97002.06
2022-09-06T18:10:21.854Z,97009.78
2022-09-06T18:15:42.721Z,97006.50
2022-09-06T18:21:06.945Z,97007.31
2022-09-06T18:26:27.610Z,97014.81
2022-09-06T18:31:48.511Z,97024.31
2022-09-06T18:37:09.251Z,97017.91
2022-09-06T18:42:30.408Z,97033.56
2022-09-06T18:47:50.976Z,97036.59
2022-09-06T18:53:11.911Z,97037.50
2022-09-06T18:58:33.458Z,97036.38
2022-09-06T19:03:55.602Z,97039.66
2022-09-06T19:09:17.268Z,97031.03
2022-09-06T19:14:39.265Z,97036.34
2022-09-06T19:20:00.845Z,97036.47
2022-09-06T19:25:21.732Z,97032.44
2022-09-06T19:30:42.401Z,97028.56
2022-09-06T19:36:11.657Z,97018.56
2022-09-06T19:41:39.002Z,97016.97
2022-09-06T19:47:00.331Z,97001.59
2022-09-06T19:52:21.127Z,96990.59
2022-09-06T19:57:41.954Z,96991.28
2022-09-06T20:03:02.632Z,96998.78
2022-09-06T20:08:23.534Z,97007.47
2022-09-06T20:13:44.299Z,96996.31
2022-09-06T20:19:05.473Z,97001.66
2022-09-06T20:24:28.236Z,96993.84
2022-09-06T20:29:48.882Z,97000.03
2022-09-06T20:35:09.653Z,96983.91
2022-09-06T20:40:30.895Z,96994.84
2022-09-06T20:45:52.225Z,96988.97
2022-09-06T20:51:19.497Z,96986.53
2022-09-06T20:56:41.978Z,96986.34
2022-09-06T21:02:02.939Z,96973.56
2022-09-06T21:07:23.666Z,96969.28
2022-09-06T21:12:44.555Z,96962.00
2022-09-06T21:18:05.720Z,96964.91
2022-09-06T21:23:27.618Z,96958.13
2022-09-06T21:28:49.279Z,96962.75
2022-09-06T21:34:16.331Z,96966.28
2022-09-06T21:39:38.360Z,96959.06
2022-09-06T21:44:59.137Z,96964.09
2022-09-06T21:50:19.956Z,96966.56
2022-09-06T21:55:41.187Z,96965.56
2022-09-06T22:01:03.814Z,96956.88
2022-09-06T22:06:26.613Z,96952.72
2022-09-06T22:11:47.319Z,96948.91
2022-09-06T22:17:09.300Z,96953.50
2022-09-06T22:22:30.108Z,96940.38
2022-09-06T22:27:50.673Z,96937.13
2022-09-06T22:33:11.470Z,96947.63
2022-09-06T22:38:33.287Z,96946.97
2022-09-06T22:43:54.626Z,96945.13
2022-09-06T22:49:15.262Z,96946.34
2022-09-06T22:54:36.469Z,96954.63
2022-09-06T22:59:57.086Z,96951.34
2022-09-06T23:05:17.692Z,96947.06
2022-09-06T23:10:43.317Z,96944.97
2022-09-06T23:16:09.044Z,96942.59
2022-09-06T23:21:29.865Z,96936.78
2022-09-06T23:26:50.687Z,96932.69
2022-09-06T23:32:11.241Z,96933.69
2022-09-06T23:37:31.925Z,96938.59
2022-09-06T23:42:52.450Z,96936.34
2022-09-06T23:48:13.135Z,96941.13
2022-09-06T23:53:33.909Z,96936.84
2022-09-06T23:58:55.070Z,96925.94
